Time;durP1;ratioP1;P1;durP2;ratioP2;P2;SDS_P1;SDS_P2;PMS_P1;PMS_P2;Temp;Humidity;BMP_temperature;BMP_pressure;BME280_temperature;BME280_humidity;BME280_pressure;Samples;Min_cycle;Max_cycle;Signal;HPM_P1;HPM_P2
2022/10/30 00:00:33;;;;;;;9.32;4.60;;;;;;;13.57;nan;100841.69;5081918;28;20039;-67
2022/10/30 00:02:58;;;;;;;8.18;4.40;;;;;;;13.57;nan;100839.84;5083722;28;20043;-67
2022/10/30 00:05:25;;;;;;;8.43;4.30;;;;;;;13.57;nan;100844.34;5085294;28;20032;-67
2022/10/30 00:07:51;;;;;;;6.13;3.90;;;;;;;13.55;nan;100839.19;5085734;28;20035;-67
2022/10/30 00:10:23;;;;;;;7.60;3.75;;;;;;;13.52;nan;100836.84;5082398;28;20089;-67
2022/10/30 00:12:50;;;;;;;6.38;4.30;;;;;;;13.50;nan;100830.88;5068563;28;20055;-67
2022/10/30 00:15:16;;;;;;;10.95;5.28;;;;;;;13.45;nan;100837.69;5069277;28;20504;-67
2022/10/30 00:17:43;;;;;;;12.13;5.97;;;;;;;13.41;nan;100845.13;5084159;28;20163;-67
2022/10/30 00:20:10;;;;;;;9.45;5.28;;;;;;;13.41;nan;100831.84;5086591;28;20028;-67
2022/10/30 00:22:36;;;;;;;7.82;4.32;;;;;;;13.58;nan;100836.19;5063804;28;20898;-67
2022/10/30 00:25:04;;;;;;;6.43;3.97;;;;;;;13.54;nan;100836.69;5074405;28;20036;-67
2022/10/30 00:27:31;;;;;;;5.97;3.63;;;;;;;13.53;nan;100832.38;5069866;28;20104;-67
2022/10/30 00:30:00;;;;;;;7.25;4.18;;;;;;;13.53;nan;100833.19;5090889;28;20032;-68
2022/10/30 00:32:27;;;;;;;6.05;3.60;;;;;;;13.52;nan;100830.72;5087782;28;20055;-68
2022/10/30 00:34:52;;;;;;;8.05;4.43;;;;;;;13.52;nan;100828.88;5071095;28;20089;-67
2022/10/30 00:37:18;;;;;;;8.85;4.30;;;;;;;13.51;nan;100829.84;5089912;28;20416;-67
2022/10/30 00:39:43;;;;;;;8.45;4.50;;;;;;;13.52;nan;100825.41;5089719;28;20059;-67
2022/10/30 00:42:15;;;;;;;9.30;4.35;;;;;;;13.53;nan;100827.88;5072604;28;20032;-67
2022/10/30 00:44:44;;;;;;;9.43;5.05;;;;;;;13.54;nan;100821.59;5055376;28;20058;-67
2022/10/30 00:47:34;;;;;;;11.10;4.10;;;;;;;13.52;nan;100822.75;5072745;28;20036;-67
2022/10/30 00:50:12;;;;;;;8.98;3.70;;;;;;;13.49;nan;100825.72;5087024;28;20066;-68
2022/10/30 00:53:00;;;;;;;8.13;4.35;;;;;;;13.46;nan;100824.22;5067766;28;20036;-68
2022/10/30 00:55:35;;;;;;;6.82;4.10;;;;;;;13.41;nan;100815.09;5070002;28;20066;-68
2022/10/30 00:58:06;;;;;;;9.55;4.55;;;;;;;13.35;nan;100821.88;5068612;28;20094;-67
2022/10/30 01:00:34;;;;;;;10.10;5.43;;;;;;;13.27;nan;100821.81;5086764;28;20040;-67
2022/10/30 01:03:02;;;;;;;7.25;4.57;;;;;;;13.21;nan;100814.50;5034862;28;20040;-67
2022/10/30 01:05:30;;;;;;;10.13;5.20;;;;;;;13.18;nan;100813.84;5094023;28;20036;-67
2022/10/30 01:07:59;;;;;;;11.07;4.78;;;;;;;13.18;nan;100820.97;5074365;28;20546;-67
2022/10/30 01:10:25;;;;;;;9.07;4.63;;;;;;;13.18;nan;100807.72;5068583;28;20066;-67
2022/10/30 01:12:54;;;;;;;9.65;4.70;;;;;;;13.21;nan;100811.84;5086445;28;20051;-67
2022/10/30 01:15:28;;;;;;;9.30;4.55;;;;;;;13.23;nan;100812.50;5088385;28;20066;-67
2022/10/30 01:18:10;;;;;;;9.57;5.10;;;;;;;13.24;nan;100814.19;5069332;28;20383;-67
2022/10/30 01:21:08;;;;;;;9.15;5.15;;;;;;;13.26;nan;100810.38;5080986;28;20087;-67
2022/10/30 01:24:12;;;;;;;9.65;5.20;;;;;;;13.24;nan;100811.53;5093499;28;20051;-67
2022/10/30 01:27:17;;;;;;;9.07;4.70;;;;;;;13.23;nan;100808.03;5073454;28;20531;-67
2022/10/30 01:29:49;;;;;;;7.50;4.40;;;;;;;13.19;nan;100806.69;5087774;28;20198;-67
2022/10/30 01:32:48;;;;;;;8.35;4.47;;;;;;;13.16;nan;100807.84;5090314;28;20043;-69
2022/10/30 01:35:27;;;;;;;6.95;4.40;;;;;;;13.16;nan;100799.06;5088094;28;20408;-68
2022/10/30 01:37:52;;;;;;;7.35;4.25;;;;;;;13.15;nan;100805.34;5068789;28;20036;-69
2022/10/30 01:40:20;;;;;;;9.85;4.57;;;;;;;13.13;nan;100802.88;5086946;28;20028;-68
2022/10/30 01:42:47;;;;;;;8.43;3.60;;;;;;;13.11;nan;100802.19;5069439;28;20079;-68
2022/10/30 01:45:23;;;;;;;8.07;4.40;;;;;;;13.13;nan;100792.25;5087273;28;20032;-69
2022/10/30 01:48:00;;;;;;;7.70;4.07;;;;;;;13.13;nan;100792.25;5087999;28;20036;-68
2022/10/30 01:50:44;;;;;;;9.02;4.30;;;;;;;13.13;nan;100791.41;5086187;28;20115;-68
2022/10/30 01:53:10;;;;;;;;;;;;;;;13.09;nan;100790.09;5086334;28;20500;-68
2022/10/30 01:55:52;;;;;;;5.82;3.60;;;;;;;13.07;nan;100789.41;5086481;28;19916;-68
2022/10/30 01:58:49;;;;;;;5.88;3.30;;;;;;;13.02;nan;100789.91;5084229;28;20466;-68
2022/10/30 02:01:16;;;;;;;5.28;3.50;;;;;;;13.07;nan;100794.72;5080523;28;20435;-68
2022/10/30 02:03:43;;;;;;;7.60;3.47;;;;;;;13.02;nan;100792.53;5070277;28;20063;-68
2022/10/30 02:06:09;;;;;;;4.93;2.88;;;;;;;12.94;nan;100798.66;5095878;28;20582;-68
2022/10/30 02:08:35;;;;;;;5.43;3.05;;;;;;;12.89;nan;100782.38;5086474;28;20098;-68
2022/10/30 02:11:04;;;;;;;5.82;3.63;;;;;;;12.87;nan;100780.88;5086934;28;20040;-68
2022/10/30 02:13:32;;;;;;;6.32;3.90;;;;;;;12.86;nan;100782.69;5088110;28;20531;-68
2022/10/30 02:15:59;;;;;;;6.03;3.40;;;;;;;12.82;nan;100776.03;5068689;28;20112;-68
2022/10/30 02:18:25;;;;;;;11.25;4.20;;;;;;;12.75;nan;100778.53;5078753;28;20039;-68
2022/10/30 02:20:55;;;;;;;7.40;4.13;;;;;;;12.68;nan;100781.94;5087278;28;20408;-68
2022/10/30 02:23:21;;;;;;;6.45;3.60;;;;;;;12.61;nan;100788.88;5095333;28;20039;-68
2022/10/30 02:25:47;;;;;;;4.65;2.92;;;;;;;12.56;nan;100788.53;5084691;28;20043;-68
2022/10/30 02:28:14;;;;;;;5.97;3.58;;;;;;;12.51;nan;100789.00;5068202;28;20620;-69
2022/10/30 02:30:42;;;;;;;5.93;3.30;;;;;;;12.47;nan;100791.16;5049395;28;20055;-68
2022/10/30 02:33:08;;;;;;;6.72;3.88;;;;;;;12.45;nan;100782.50;5085569;28;20030;-68
2022/10/30 02:35:34;;;;;;;10.60;4.35;;;;;;;12.48;nan;100790.16;5086118;28;20044;-68
2022/10/30 02:37:59;;;;;;;10.35;4.43;;;;;;;12.48;nan;100792.81;5086972;28;20404;-69
2022/10/30 02:40:24;;;;;;;7.40;4.05;;;;;;;12.48;nan;100790.16;5084995;28;20191;-69
2022/10/30 02:42:51;;;;;;;5.80;3.65;;;;;;;12.46;nan;100794.78;5086155;28;20044;-68
2022/10/30 02:45:17;;;;;;;7.15;3.83;;;;;;;12.43;nan;100795.09;5068728;28;20458;-69
2022/10/30 02:47:51;;;;;;;5.72;3.22;;;;;;;12.40;nan;100792.78;5087034;28;20304;-69
2022/10/30 02:50:17;;;;;;;5.80;3.30;;;;;;;12.37;nan;100790.44;5037034;28;20040;-69
2022/10/30 02:52:43;;;;;;;5.32;3.22;;;;;;;12.34;nan;100790.72;5069365;28;20028;-68
2022/10/30 02:55:09;;;;;;;5.47;3.13;;;;;;;12.29;nan;100793.84;5077969;28;20105;-68
2022/10/30 02:57:35;;;;;;;6.63;3.85;;;;;;;12.27;nan;100793.16;5068499;28;20032;-68
2022/10/30 03:00:00;;;;;;;5.80;3.42;;;;;;;12.25;nan;100796.97;5087080;28;20036;-68
2022/10/30 03:02:28;;;;;;;5.32;3.67;;;;;;;12.22;nan;100794.63;5084431;28;20047;-68
2022/10/30 03:04:54;;;;;;;;;;;;;;;12.18;nan;100793.28;5090908;28;20040;-68
2022/10/30 03:07:20;;;;;;;5.25;3.35;;;;;;;12.17;nan;100794.28;5069794;28;19916;-68
2022/10/30 03:09:47;;;;;;;7.87;3.37;;;;;;;12.29;nan;100796.50;5066483;28;20409;-68
2022/10/30 03:12:13;;;;;;;7.45;3.30;;;;;;;12.24;nan;100801.44;5066042;28;20035;-69
2022/10/30 03:14:40;;;;;;;4.95;2.63;;;;;;;12.20;nan;100788.66;5065369;28;20040;-68
2022/10/30 03:17:06;;;;;;;3.90;2.63;;;;;;;12.17;nan;100796.94;5081920;28;20089;-68
2022/10/30 03:19:32;;;;;;;;;;;;;;;12.13;nan;100795.56;5068117;28;20036;-68
2022/10/30 03:21:58;;;;;;;4.75;2.50;;;;;;;12.10;nan;100792.25;5076339;28;20026;-69
2022/10/30 03:24:24;;;;;;;4.07;2.58;;;;;;;12.10;nan;100802.00;5085466;28;20048;-68
2022/10/30 03:26:50;;;;;;;6.00;3.00;;;;;;;12.10;nan;100797.53;5086145;28;20032;-68
2022/10/30 03:29:20;;;;;;;5.57;3.00;;;;;;;12.07;nan;100794.38;5084611;28;20093;-68
2022/10/30 03:31:45;;;;;;;3.92;2.70;;;;;;;12.04;nan;100794.69;5085985;28;20047;-68
2022/10/30 03:34:14;;;;;;;6.47;3.00;;;;;;;12.02;nan;100789.53;5085291;28;20417;-68
2022/10/30 03:36:40;;;;;;;8.02;3.45;;;;;;;11.99;nan;100803.13;5086189;28;20056;-68
2022/10/30 03:39:07;;;;;;;5.13;2.80;;;;;;;11.95;nan;100796.44;5068036;28;20127;-68
2022/10/30 03:41:33;;;;;;;7.28;3.50;;;;;;;11.92;nan;100791.47;5084802;28;20436;-68
2022/10/30 03:43:59;;;;;;;5.75;3.20;;;;;;;11.93;nan;100790.47;5068721;28;20481;-68
2022/10/30 03:46:26;;;;;;;5.05;2.97;;;;;;;11.92;nan;100796.75;5085097;28;20093;-68
2022/10/30 03:48:52;;;;;;;5.47;2.97;;;;;;;11.90;nan;100788.97;5084002;28;20504;-68
2022/10/30 03:51:18;;;;;;;5.32;2.97;;;;;;;11.87;nan;100791.09;5067335;28;20043;-68
2022/10/30 03:53:44;;;;;;;5.03;3.28;;;;;;;11.83;nan;100792.34;5085239;28;20032;-68
2022/10/30 03:56:10;;;;;;;6.10;3.42;;;;;;;11.83;nan;100789.69;5085221;28;20127;-68
2022/10/30 03:58:36;;;;;;;6.13;3.70;;;;;;;11.81;nan;100789.84;5086407;28;20028;-68
2022/10/30 04:01:06;;;;;;;6.57;3.38;;;;;;;11.79;nan;100790.97;5068052;28;20028;-68
2022/10/30 04:03:33;;;;;;;5.78;3.30;;;;;;;11.75;nan;100790.47;5082738;28;20043;-68
2022/10/30 04:06:00;;;;;;;6.45;3.58;;;;;;;11.74;nan;100788.78;5085983;28;20063;-68
2022/10/30 04:08:25;;;;;;;8.13;3.83;;;;;;;11.71;nan;100794.41;5082738;28;20120;-68
2022/10/30 04:10:51;;;;;;;6.87;3.80;;;;;;;11.71;nan;100793.56;5086290;28;20036;-68
2022/10/30 04:13:19;;;;;;;7.75;4.47;;;;;;;11.69;nan;100797.19;5066763;28;20316;-68
2022/10/30 04:15:48;;;;;;;7.68;3.40;;;;;;;11.67;nan;100799.16;5064366;28;20127;-68
2022/10/30 04:18:15;;;;;;;5.57;3.42;;;;;;;11.67;nan;100793.03;5065591;28;20169;-69
2022/10/30 04:20:42;;;;;;;7.45;3.60;;;;;;;11.68;nan;100787.59;5067045;28;20021;-68
2022/10/30 04:23:13;;;;;;;6.68;3.10;;;;;;;11.68;nan;100790.25;5082200;28;20034;-68
2022/10/30 04:25:39;;;;;;;6.45;2.92;;;;;;;11.68;nan;100789.41;5067432;28;20101;-68
2022/10/30 04:28:05;;;;;;;6.53;3.17;;;;;;;11.68;nan;100794.72;5084204;28;20144;-68
2022/10/30 04:30:35;;;;;;;6.05;3.88;;;;;;;11.65;nan;100797.66;5084336;28;20032;-68
2022/10/30 04:33:04;;;;;;;9.50;3.83;;;;;;;11.61;nan;100798.97;5066944;28;20228;-68
2022/10/30 04:35:33;;;;;;;5.93;3.53;;;;;;;11.57;nan;100798.41;5065175;28;20360;-68
2022/10/30 04:38:09;;;;;;;7.32;3.72;;;;;;;11.55;nan;100797.72;5085227;28;20028;-68
2022/10/30 04:40:38;;;;;;;4.88;3.28;;;;;;;11.53;nan;100801.50;5082659;28;20035;-68
2022/10/30 04:43:06;;;;;;;9.55;3.60;;;;;;;11.51;nan;100803.47;5080052;28;20043;-68
2022/10/30 04:45:32;;;;;;;7.30;3.53;;;;;;;11.50;nan;100804.47;5067119;28;20040;-68
2022/10/30 04:48:15;;;;;;;7.60;3.50;;;;;;;11.44;nan;100809.38;5067268;28;20060;-68
2022/10/30 04:50:42;;;;;;;5.07;2.75;;;;;;;11.43;nan;100801.59;5083410;28;20035;-68
2022/10/30 04:53:14;;;;;;;5.53;3.00;;;;;;;11.39;nan;100801.06;5061430;28;20036;-68
2022/10/30 04:55:41;;;;;;;5.05;3.10;;;;;;;11.38;nan;100803.84;5049924;28;20033;-69
2022/10/30 04:58:08;;;;;;;7.32;3.22;;;;;;;11.34;nan;100803.31;5084886;28;20256;-68
2022/10/30 05:00:35;;;;;;;6.93;3.15;;;;;;;11.31;nan;100808.09;5065765;28;20042;-68
2022/10/30 05:03:02;;;;;;;5.55;2.70;;;;;;;11.27;nan;100796.94;5083796;28;20039;-68
2022/10/30 05:05:31;;;;;;;4.85;2.70;;;;;;;11.24;nan;100797.25;5084938;28;20063;-68
2022/10/30 05:07:57;;;;;;;4.47;2.92;;;;;;;11.23;nan;100793.78;5082999;28;20040;-68
2022/10/30 05:10:23;;;;;;;5.25;3.45;;;;;;;11.20;nan;100788.78;5082553;28;20036;-68
2022/10/30 05:12:53;;;;;;;6.45;3.10;;;;;;;11.21;nan;100794.91;5066645;28;20281;-68
2022/10/30 05:15:19;;;;;;;6.85;3.60;;;;;;;11.16;nan;100798.00;5070947;28;20262;-68
2022/10/30 05:17:45;;;;;;;9.90;3.70;;;;;;;11.11;nan;100792.34;5069841;28;20028;-68
2022/10/30 05:20:11;;;;;;;6.88;3.60;;;;;;;11.09;nan;100789.00;5087721;28;20435;-68
2022/10/30 05:22:38;;;;;;;6.53;3.47;;;;;;;11.05;nan;100795.56;5062718;28;20056;-68
2022/10/30 05:25:04;;;;;;;5.07;3.10;;;;;;;11.00;nan;100798.66;5088408;28;20040;-68
2022/10/30 05:27:32;;;;;;;5.10;3.22;;;;;;;10.96;nan;100783.22;5085037;28;20396;-68
2022/10/30 05:29:58;;;;;;;5.53;3.15;;;;;;;10.91;nan;100791.59;5068727;28;20040;-69
2022/10/30 05:32:23;;;;;;;5.40;3.15;;;;;;;10.90;nan;100797.06;5069847;28;20040;-68
2022/10/30 05:34:50;;;;;;;5.30;3.53;;;;;;;10.86;nan;100795.66;5088465;28;20039;-68
2022/10/30 05:37:15;;;;;;;4.88;3.10;;;;;;;10.82;nan;100795.97;5086555;28;20048;-68
2022/10/30 05:39:41;;;;;;;5.75;3.53;;;;;;;10.79;nan;100803.34;5088650;28;20089;-68
2022/10/30 05:42:07;;;;;;;6.00;3.25;;;;;;;10.75;nan;100802.81;5074633;28;20435;-68
2022/10/30 05:44:33;;;;;;;7.10;4.10;;;;;;;10.71;nan;100797.97;5070014;28;20417;-68
2022/10/30 05:46:59;;;;;;;6.55;3.80;;;;;;;10.69;nan;100806.03;5089210;28;20393;-68
2022/10/30 05:49:26;;;;;;;5.90;3.88;;;;;;;10.66;nan;100809.00;5086605;28;20031;-69
2022/10/30 05:51:52;;;;;;;5.80;3.65;;;;;;;10.64;nan;100795.06;5086429;28;20097;-68
2022/10/30 05:54:18;;;;;;;7.20;3.53;;;;;;;10.65;nan;100798.53;5087257;28;20385;-68
2022/10/30 05:56:43;;;;;;;;;;;;;;;10.60;nan;100794.50;5071236;28;20036;-68
2022/10/30 05:59:09;;;;;;;7.13;4.13;;;;;;;10.54;nan;100792.47;5069659;28;19916;-68
2022/10/30 06:01:35;;;;;;;6.63;3.90;;;;;;;10.71;nan;100801.44;5084431;28;20731;-68
2022/10/30 06:04:01;;;;;;;4.75;3.38;;;;;;;10.65;nan;100799.38;5085952;28;20024;-68
2022/10/30 06:06:26;;;;;;;;;;;;;;;10.63;nan;100798.72;5090272;28;20058;-68
2022/10/30 06:08:52;;;;;;;;;;;;;;;10.60;nan;100799.81;5087170;28;19946;-68
2022/10/30 06:11:18;;;;;;;6.68;4.55;;;;;;;10.57;nan;100800.09;5087097;28;20235;-68
2022/10/30 06:13:47;;;;;;;9.52;5.05;;;;;;;10.53;nan;100804.00;5087755;28;20020;-68
2022/10/30 06:16:13;;;;;;;;;;;;;;;10.51;nan;100807.78;5070432;28;20032;-68
2022/10/30 06:18:40;;;;;;;8.98;4.93;;;;;;;10.51;nan;100810.41;5088642;28;19965;-68
2022/10/30 06:21:07;;;;;;;8.68;4.20;;;;;;;10.50;nan;100811.41;5086072;28;20119;-68
2022/10/30 06:23:44;;;;;;;;;;;;;;;10.48;nan;100814.19;5074215;28;20454;-68
2022/10/30 06:26:11;;;;;;;9.10;4.90;;;;;;;10.49;nan;100817.69;5089816;28;19920;-68
2022/10/30 06:28:36;;;;;;;7.55;4.75;;;;;;;10.48;nan;100821.28;5086283;28;20267;-68
2022/10/30 06:31:04;;;;;;;6.43;3.67;;;;;;;10.60;nan;100820.13;5086122;28;20414;-68
2022/10/30 06:33:30;;;;;;;8.95;5.00;;;;;;;10.60;nan;100810.38;5069137;28;20043;-68
2022/10/30 06:35:56;;;;;;;11.65;5.65;;;;;;;10.63;nan;100819.88;5086826;28;20028;-68
2022/10/30 06:38:22;;;;;;;7.80;5.25;;;;;;;10.62;nan;100823.47;5053609;28;20093;-68
2022/10/30 06:40:49;;;;;;;6.22;4.28;;;;;;;10.77;nan;100818.53;5086424;28;20386;-68
2022/10/30 06:43:15;;;;;;;6.00;4.00;;;;;;;10.74;nan;100824.13;5068951;28;20386;-68
2022/10/30 06:45:41;;;;;;;7.93;4.07;;;;;;;10.77;nan;100826.47;5087469;28;20040;-68
2022/10/30 06:48:10;;;;;;;6.40;3.95;;;;;;;10.79;nan;100829.81;5087415;28;20047;-68
2022/10/30 06:50:35;;;;;;;5.72;3.63;;;;;;;10.83;nan;100834.66;5088075;28;20028;-68
2022/10/30 06:53:01;;;;;;;9.10;4.93;;;;;;;10.90;nan;100832.28;5088309;28;20028;-68
2022/10/30 06:55:27;;;;;;;8.50;4.47;;;;;;;10.98;nan;100823.59;5086738;28;20485;-68
2022/10/30 06:57:55;;;;;;;6.88;3.88;;;;;;;11.04;nan;100821.19;5086863;28;20124;-68
2022/10/30 07:00:21;;;;;;;7.88;4.63;;;;;;;11.12;nan;100820.44;5086807;28;20047;-68
2022/10/30 07:03:00;;;;;;;6.70;3.97;;;;;;;11.19;nan;100826.81;5084201;28;20037;-68
2022/10/30 07:05:26;;;;;;;6.80;3.92;;;;;;;11.29;nan;100825.94;5088374;28;20093;-68
2022/10/30 07:07:55;;;;;;;7.03;4.75;;;;;;;11.40;nan;100820.44;5067115;28;20039;-68
2022/10/30 07:10:21;;;;;;;11.13;5.03;;;;;;;11.54;nan;100827.84;5086754;28;20079;-68
2022/10/30 07:12:52;;;;;;;9.02;5.03;;;;;;;11.65;nan;100824.97;5086358;28;20028;-68
2022/10/30 07:15:17;;;;;;;9.23;4.60;;;;;;;11.80;nan;100829.75;5066023;28;20075;-68
2022/10/30 07:17:54;;;;;;;9.10;4.70;;;;;;;11.88;nan;100824.53;5087110;28;20134;-68
2022/10/30 07:20:23;;;;;;;9.00;4.38;;;;;;;12.02;nan;100824.00;5053463;28;20036;-68
2022/10/30 07:22:51;;;;;;;7.15;4.70;;;;;;;12.14;nan;100826.41;5079841;28;20044;-68
2022/10/30 07:25:17;;;;;;;6.82;4.13;;;;;;;12.27;nan;100829.47;5048196;28;20044;-68
2022/10/30 07:27:48;;;;;;;6.15;4.00;;;;;;;12.40;nan;100824.59;5086020;28;20046;-68
2022/10/30 07:30:15;;;;;;;8.02;4.38;;;;;;;12.49;nan;100831.63;5085710;28;20032;-68
2022/10/30 07:32:42;;;;;;;8.68;4.55;;;;;;;12.58;nan;100840.44;5088094;28;20031;-68
2022/10/30 07:35:11;;;;;;;13.07;4.68;;;;;;;12.66;nan;100831.72;5084586;28;20036;-68
2022/10/30 07:37:37;;;;;;;7.80;4.35;;;;;;;12.80;nan;100831.13;5084811;28;20032;-68
2022/10/30 07:40:04;;;;;;;7.75;4.50;;;;;;;12.90;nan;100836.31;5068881;28;20058;-68
2022/10/30 07:42:31;;;;;;;6.55;4.00;;;;;;;13.00;nan;100841.50;5087398;28;20123;-68
2022/10/30 07:45:03;;;;;;;6.50;3.60;;;;;;;13.10;nan;100842.19;5068571;28;20103;-68
2022/10/30 07:47:29;;;;;;;8.30;4.80;;;;;;;13.16;nan;100844.19;5062615;28;20305;-68
2022/10/30 07:49:55;;;;;;;8.48;4.70;;;;;;;13.25;nan;100848.56;5086328;28;20032;-68
2022/10/30 07:52:21;;;;;;;8.07;4.55;;;;;;;13.33;nan;100840.63;5066447;28;20036;-68
2022/10/30 07:54:47;;;;;;;7.25;4.60;;;;;;;13.37;nan;100844.63;5068839;28;20497;-68
2022/10/30 07:57:13;;;;;;;6.22;4.10;;;;;;;13.44;nan;100847.44;5066933;28;20040;-69
2022/10/30 07:59:39;;;;;;;6.65;4.35;;;;;;;13.51;nan;100843.16;5084216;28;20039;-68
2022/10/30 08:02:07;;;;;;;6.05;3.92;;;;;;;13.62;nan;100847.31;5067722;28;20028;-68
2022/10/30 08:04:32;;;;;;;6.93;3.50;;;;;;;13.72;nan;100848.00;5084896;28;20039;-68
2022/10/30 08:06:58;;;;;;;8.60;4.35;;;;;;;13.82;nan;100847.84;5085375;28;20121;-68
2022/10/30 08:09:24;;;;;;;9.13;4.03;;;;;;;13.94;nan;100851.00;5086140;28;20804;-68
2022/10/30 08:11:51;;;;;;;10.35;4.53;;;;;;;14.06;nan;100851.50;5066837;28;20559;-68
2022/10/30 08:14:17;;;;;;;7.85;4.38;;;;;;;14.13;nan;100847.19;5067061;28;20046;-67
2022/10/30 08:16:44;;;;;;;8.27;4.57;;;;;;;14.21;nan;100852.50;5067187;28;20028;-68
2022/10/30 08:19:13;;;;;;;7.38;3.50;;;;;;;14.32;nan;100851.31;5067383;28;20032;-68
2022/10/30 08:21:43;;;;;;;6.65;4.03;;;;;;;14.41;nan;100847.66;5056298;28;20030;-68
2022/10/30 08:24:09;;;;;;;6.05;3.85;;;;;;;14.54;nan;100847.16;5069288;28;20044;-69
2022/10/30 08:26:35;;;;;;;5.57;3.80;;;;;;;14.64;nan;100856.63;5086368;28;20036;-68
2022/10/30 08:29:02;;;;;;;4.97;3.58;;;;;;;14.78;nan;100855.09;5082660;28;20028;-68
2022/10/30 08:31:28;;;;;;;5.47;3.10;;;;;;;14.92;nan;100853.56;5085532;28;20085;-68
2022/10/30 08:33:55;;;;;;;5.80;3.10;;;;;;;15.05;nan;100853.81;5068080;28;20063;-68
2022/10/30 08:36:20;;;;;;;5.85;3.60;;;;;;;15.20;nan;100856.56;5066930;28;20378;-68
2022/10/30 08:38:46;;;;;;;6.90;3.63;;;;;;;15.33;nan;100858.69;5067732;28;20046;-68
2022/10/30 08:41:12;;;;;;;8.27;3.67;;;;;;;15.45;nan;100853.81;5085790;28;20107;-68
2022/10/30 08:43:38;;;;;;;6.65;4.07;;;;;;;15.58;nan;100856.69;5084571;28;20040;-68
2022/10/30 08:46:07;;;;;;;6.28;3.05;;;;;;;15.68;nan;100856.47;5067783;28;20426;-69
2022/10/30 08:48:33;;;;;;;4.88;2.50;;;;;;;15.76;nan;100851.13;5068781;28;20090;-68
2022/10/30 08:51:03;;;;;;;7.15;3.10;;;;;;;15.83;nan;100854.75;5071018;28;20580;-68
2022/10/30 08:53:29;;;;;;;6.75;3.60;;;;;;;15.92;nan;100858.16;5071297;28;20050;-68
2022/10/30 08:56:04;;;;;;;5.38;3.40;;;;;;;16.04;nan;100856.75;5088376;28;20093;-68
2022/10/30 08:58:30;;;;;;;5.68;3.38;;;;;;;16.18;nan;100849.75;5080516;28;20033;-68
2022/10/30 09:00:56;;;;;;;6.47;3.78;;;;;;;16.28;nan;100854.84;5071710;28;20042;-68
2022/10/30 09:03:22;;;;;;;8.95;4.20;;;;;;;16.44;nan;100853.88;5072351;28;20042;-68
2022/10/30 09:05:48;;;;;;;7.25;4.40;;;;;;;16.56;nan;100847.91;5091885;28;20101;-68
2022/10/30 09:08:15;;;;;;;8.93;3.88;;;;;;;16.67;nan;100841.28;5091288;28;20035;-69
2022/10/30 09:10:41;;;;;;;6.70;3.88;;;;;;;16.79;nan;100841.69;5090128;28;20028;-68
2022/10/30 09:13:08;;;;;;;7.05;3.55;;;;;;;16.90;nan;100835.03;5088357;28;20040;-68
2022/10/30 09:15:34;;;;;;;10.10;3.92;;;;;;;16.98;nan;100833.09;5070459;28;20109;-68
2022/10/30 09:18:03;;;;;;;7.88;3.60;;;;;;;17.09;nan;100831.81;5070650;28;20036;-69
2022/10/30 09:20:30;;;;;;;7.60;4.00;;;;;;;17.19;nan;100828.84;5089028;28;20463;-69
2022/10/30 09:22:59;;;;;;;9.23;4.10;;;;;;;17.31;nan;100831.84;5091166;28;20081;-68
2022/10/30 09:25:29;;;;;;;6.03;3.83;;;;;;;17.44;nan;100815.13;5071023;28;20532;-68
2022/10/30 09:27:55;;;;;;;7.90;4.63;;;;;;;17.53;nan;100822.81;5087905;28;20729;-68
2022/10/30 09:30:21;;;;;;;7.65;4.03;;;;;;;17.64;nan;100821.50;5084644;28;20516;-69
2022/10/30 09:33:03;;;;;;;6.97;3.95;;;;;;;17.76;nan;100822.63;5069732;28;20032;-68
2022/10/30 09:35:29;;;;;;;7.78;3.70;;;;;;;17.89;nan;100829.97;5069375;28;20032;-67
2022/10/30 09:37:57;;;;;;;6.13;3.90;;;;;;;18.00;nan;100826.78;5068944;28;20028;-67
2022/10/30 09:40:59;;;;;;;6.07;3.80;;;;;;;18.09;nan;100824.81;5069537;28;20051;-69
2022/10/30 09:44:04;;;;;;;7.13;3.92;;;;;;;18.23;nan;100829.25;5051567;28;20097;-67
2022/10/30 09:46:35;;;;;;;5.75;3.30;;;;;;;18.35;nan;100831.34;5048154;28;20127;-67
2022/10/30 09:49:30;;;;;;;9.00;4.00;;;;;;;18.50;nan;100844.66;5088814;28;20031;-67
2022/10/30 09:52:14;;;;;;;7.80;4.65;;;;;;;18.62;nan;100840.41;5075653;28;20036;-68
2022/10/30 09:55:07;;;;;;;8.88;5.03;;;;;;;18.75;nan;100837.78;5088538;28;20035;-66
2022/10/30 09:58:12;;;;;;;12.75;6.13;;;;;;;18.86;nan;100847.16;5080750;28;20040;-67
2022/10/30 10:01:08;;;;;;;9.55;5.38;;;;;;;18.97;nan;100845.75;5084439;28;20043;-67
2022/10/30 10:03:53;;;;;;;10.38;5.68;;;;;;;19.12;nan;100843.78;5061534;28;20036;-67
2022/10/30 10:06:20;;;;;;;11.10;5.55;;;;;;;19.24;nan;100844.84;5096345;28;20043;-67
2022/10/30 10:09:09;;;;;;;11.10;5.60;;;;;;;19.38;nan;100845.72;5072901;28;20024;-67
2022/10/30 10:11:39;;;;;;;10.13;5.20;;;;;;;19.51;nan;100855.66;5091059;28;20044;-67
2022/10/30 10:14:13;;;;;;;10.50;5.22;;;;;;;19.68;nan;100848.91;5071024;28;20507;-67
2022/10/30 10:16:44;;;;;;;10.75;5.55;;;;;;;19.79;nan;100846.66;5083360;28;20136;-68
2022/10/30 10:19:31;;;;;;;8.38;4.80;;;;;;;19.93;nan;100851.00;5083057;28;20481;-68
2022/10/30 10:21:58;;;;;;;8.80;4.63;;;;;;;20.06;nan;100845.63;5086243;28;20059;-66
2022/10/30 10:24:29;;;;;;;6.60;4.28;;;;;;;20.25;nan;100835.09;5085924;28;20040;-67
2022/10/30 10:27:37;;;;;;;8.38;4.72;;;;;;;20.45;nan;100833.22;5086078;28;20039;-68
2022/10/30 10:30:12;;;;;;;8.23;5.15;;;;;;;21.12;nan;100831.19;5033973;28;20055;-67
2022/10/30 10:32:57;;;;;;;9.45;4.90;;;;;;;22.89;nan;100841.81;5087369;28;20028;-67
2022/10/30 10:35:44;;;;;;;9.30;4.25;;;;;;;24.47;nan;100832.66;5067977;28;20063;-67
2022/10/30 10:38:23;;;;;;;9.68;3.97;;;;;;;25.82;nan;100838.56;5061566;28;20119;-67
2022/10/30 10:41:28;;;;;;;8.93;3.58;;;;;;;27.03;nan;100834.34;5067043;28;20092;-67
2022/10/30 10:44:06;;;;;;;7.35;3.30;;;;;;;28.01;nan;100838.84;5087824;28;20123;-67
2022/10/30 10:47:05;;;;;;;8.77;3.75;;;;;;;28.59;nan;100835.19;5089302;28;20221;-67
2022/10/30 10:49:39;;;;;;;;;;;;;;;28.70;nan;100825.16;5070963;28;20051;-67
2022/10/30 10:52:11;;;;;;;;;;;;;;;28.98;nan;100833.97;5086457;28;19912;-67
2022/10/30 10:54:45;;;;;;;;;;;;;;;29.31;nan;100832.72;5084464;28;19955;-67
2022/10/30 10:57:40;;;;;;;;;;;;;;;29.67;nan;100823.81;5082420;28;19916;-67
2022/10/30 11:00:07;;;;;;;;;;;;;;;30.00;nan;100830.63;5055910;28;20292;-67
2022/10/30 11:02:42;;;;;;;;;;;;;;;30.16;nan;100832.22;5085161;28;19981;-67
2022/10/30 11:05:28;;;;;;;;;;;;;;;29.76;nan;100827.63;5084712;28;19920;-67
2022/10/30 11:07:58;;;;;;;;;;;;;;;28.77;nan;100828.47;5050298;28;19951;-68
2022/10/30 11:10:25;;;;;;;;;;;;;;;27.98;nan;100823.88;5084586;28;19916;-68
2022/10/30 11:12:51;;;;;;;;;;;;;;;27.27;nan;100827.59;5083225;28;19923;-68
2022/10/30 11:15:26;;;;;;;;;;;;;;;26.72;nan;100817.72;5086942;28;19972;-67
2022/10/30 11:17:51;;;;;;;;;;;;;;;26.13;nan;100812.78;5084143;28;20345;-68
2022/10/30 11:20:22;;;;;;;;;;;;;;;25.88;nan;100809.69;5085193;28;19916;-68
2022/10/30 11:22:50;;;;;;;;;;;;;;;25.59;nan;100807.84;5088473;28;19969;-67
2022/10/30 11:25:21;;;;;;;;;;;;;;;25.31;nan;100805.16;5087808;28;19980;-68
2022/10/30 11:27:47;;;;;;;;;;;;;;;24.97;nan;100807.75;5066087;28;20171;-68
2022/10/30 11:30:18;;;;;;;;;;;;;;;24.73;nan;100807.00;5067275;28;19916;-68
2022/10/30 11:32:44;;;;;;;;;;;;;;;24.51;nan;100801.41;5066800;28;19924;-68
2022/10/30 11:35:10;;;;;;;;;;;;;;;24.37;nan;100807.00;5088061;28;19916;-68
2022/10/30 11:37:37;;;;;;;;;;;;;;;24.16;nan;100802.22;5088886;28;19971;-67
2022/10/30 11:40:05;;;;;;;;;;;;;;;24.01;nan;100799.16;5086602;28;19915;-67
2022/10/30 11:42:31;;;;;;;;;;;;;;;23.89;nan;100802.66;5082865;28;19923;-68
2022/10/30 11:44:57;;;;;;;;;;;;;;;23.80;nan;100797.84;5083827;28;20324;-67
2022/10/30 11:47:29;;;;;;;;;;;;;;;23.71;nan;100798.13;5084165;28;19927;-68
2022/10/30 11:50:00;;;;;;;;;;;;;;;23.73;nan;100796.06;5068204;28;19916;-68
2022/10/30 11:52:27;;;;;;;7.55;3.40;;;;;;;23.71;nan;100789.22;5078706;28;20010;-67
2022/10/30 11:55:00;;;;;;;9.13;3.40;;;;;;;23.75;nan;100798.53;5087304;28;20397;-67
2022/10/30 11:57:29;;;;;;;6.93;3.22;;;;;;;23.72;nan;100794.41;5050863;28;20040;-67
2022/10/30 11:59:56;;;;;;;13.15;3.95;;;;;;;23.67;nan;100799.69;5084666;28;20408;-68
2022/10/30 12:02:28;;;;;;;9.45;3.35;;;;;;;23.71;nan;100787.34;5083072;28;20449;-68